Time;durP1;ratioP1;P1;durP2;ratioP2;P2;SDS_P1;SDS_P2;PMS_P1;PMS_P2;Temp;Humidity;BMP_temperature;BMP_pressure;BME280_temperature;BME280_humidity;BME280_pressure;Samples;Min_cycle;Max_cycle;Signal;HPM_P1;HPM_P2
2022/05/08 00:00:35;;;;;;;11.87;10.77;;;13.10;99.90;;;-141.84;88.08;17215.31;5113220;28;20255;-52
2022/05/08 00:03:04;;;;;;;13.20;12.00;;;13.10;99.90;;;-141.84;88.57;17203.13;5112934;28;20736;-55
2022/05/08 00:05:32;;;;;;;11.83;10.67;;;13.20;99.90;;;-141.84;88.33;17199.06;5113361;28;20222;-53
2022/05/08 00:08:05;;;;;;;11.90;10.37;;;13.20;99.90;;;-141.84;88.72;17182.81;5113175;28;20271;-56
2022/05/08 00:10:33;;;;;;;12.27;10.80;;;13.20;99.90;;;-141.84;88.79;17223.44;5113661;28;20203;-53
2022/05/08 00:13:01;;;;;;;12.47;11.27;;;13.20;99.90;;;-141.84;89.07;17186.88;5113110;28;20227;-55
2022/05/08 00:15:30;;;;;;;12.90;11.60;;;13.20;99.90;;;-141.84;89.50;17178.75;5112990;28;20223;-55
2022/05/08 00:17:58;;;;;;;12.67;11.47;;;13.20;99.90;;;-141.84;89.74;17160.47;5113033;28;20310;-54
2022/05/08 00:20:26;;;;;;;12.60;11.30;;;13.10;99.90;;;-141.84;90.38;17134.09;5112590;28;20742;-56
2022/05/08 00:22:54;;;;;;;12.43;11.23;;;13.10;99.90;;;-141.84;90.78;17130.03;5112391;28;20206;-57
2022/05/08 00:25:24;;;;;;;13.17;11.87;;;13.10;99.90;;;-141.84;90.21;17138.16;5113425;28;20206;-54
2022/05/08 00:27:52;;;;;;;12.30;11.10;;;13.00;99.90;;;-141.84;90.39;17152.34;5112639;28;20230;-57
2022/05/08 00:30:20;;;;;;;12.00;10.90;;;13.00;99.90;;;-141.84;91.19;17138.16;5113022;28;20223;-56
2022/05/08 00:32:49;;;;;;;12.30;11.10;;;13.00;99.90;;;-141.84;91.14;17119.88;5112731;28;20235;-55
2022/05/08 00:35:17;;;;;;;12.93;11.63;;;13.00;99.90;;;-141.84;90.57;17162.50;5113014;28;20227;-53
2022/05/08 00:37:45;;;;;;;12.13;10.90;;;13.00;99.90;;;-141.84;90.54;17150.31;5112848;28;20223;-56
2022/05/08 00:40:13;;;;;;;13.00;11.80;;;13.00;99.90;;;-141.84;90.28;17128.00;5112232;28;20513;-55
2022/05/08 00:42:41;;;;;;;12.60;11.40;;;13.10;99.90;;;-141.84;90.14;17134.09;5112375;28;20261;-55
2022/05/08 00:45:10;;;;;;;13.93;12.53;;;13.20;99.90;;;-141.84;90.06;17123.94;5112087;28;20223;-53
2022/05/08 00:47:38;;;;;;;12.87;11.63;;;13.20;99.90;;;-141.84;90.08;17142.22;5112569;28;20307;-52
2022/05/08 00:50:09;;;;;;;14.03;12.20;;;13.30;99.90;;;-141.84;89.84;17134.09;5112353;28;20195;-56
2022/05/08 00:52:37;;;;;;;13.60;12.27;;;13.30;99.90;;;-141.84;89.39;17150.31;5113129;28;20264;-57
2022/05/08 00:55:07;;;;;;;14.20;12.80;;;13.40;99.90;;;-141.84;89.41;17150.31;5111854;28;20228;-56
2022/05/08 00:57:38;;;;;;;13.50;12.23;;;13.40;99.90;;;-141.84;89.78;17125.97;5111856;28;20298;-55
2022/05/08 01:00:09;;;;;;;15.10;12.57;;;13.40;99.90;;;-141.84;90.16;17162.50;5112252;28;20295;-53
2022/05/08 01:02:37;;;;;;;13.70;12.40;;;13.40;99.90;;;-141.84;90.00;17121.91;5112368;28;20306;-54
2022/05/08 01:05:07;;;;;;;14.40;13.10;;;13.40;99.90;;;-141.84;90.05;17142.22;5112009;28;20253;-52
2022/05/08 01:07:35;;;;;;;15.00;13.53;;;13.40;99.90;;;-141.84;88.72;17174.69;5112091;28;20274;-56
2022/05/08 01:10:04;;;;;;;14.60;13.07;;;13.50;99.90;;;-141.84;89.45;17150.31;5111441;28;20223;-56
2022/05/08 01:12:34;;;;;;;15.27;13.77;;;13.40;99.90;;;-141.84;90.49;17079.25;5112031;28;20307;-53
2022/05/08 01:15:14;;;;;;;15.40;13.90;;;13.40;99.90;;;-141.84;91.51;17085.34;5111519;28;20306;-55
2022/05/08 01:17:42;;;;;;;15.50;14.00;;;13.20;99.90;;;-141.84;91.83;17036.59;5111816;28;20227;-56
2022/05/08 01:20:13;;;;;;;16.30;14.63;;;13.20;99.90;;;-141.84;92.03;17079.25;5111847;28;20238;-56
2022/05/08 01:22:42;;;;;;;16.17;14.60;;;13.10;99.90;;;-141.84;92.07;17040.66;5112081;28;20197;-56
2022/05/08 01:25:10;;;;;;;16.13;14.43;;;13.10;99.90;;;-141.84;92.47;17022.38;5111421;28;20690;-55
2022/05/08 01:27:38;;;;;;;15.87;14.27;;;13.10;99.90;;;-141.84;92.42;17038.63;5111560;28;20655;-54
2022/05/08 01:30:08;;;;;;;15.37;13.97;;;13.10;99.90;;;-141.84;92.00;17038.63;5111219;28;20742;-57
2022/05/08 01:32:36;;;;;;;16.17;14.53;;;13.10;99.90;;;-141.84;91.25;17071.13;5110788;28;20219;-56
2022/05/08 01:35:05;;;;;;;16.53;14.80;;;13.10;99.90;;;-141.84;91.89;17030.50;5111189;28;20207;-54
2022/05/08 01:37:33;;;;;;;15.63;14.03;;;13.00;99.90;;;-141.84;93.18;17016.28;5111617;28;20302;-54
2022/05/08 01:40:02;;;;;;;16.50;14.90;;;12.90;99.90;;;-141.84;92.65;17004.09;5111055;28;20323;-55
2022/05/08 01:42:31;;;;;;;15.50;14.00;;;12.90;99.90;;;-141.84;93.21;16989.88;5111050;28;20223;-53
2022/05/08 01:44:59;;;;;;;16.70;15.00;;;12.90;99.90;;;-141.84;93.59;16961.44;5111046;28;20311;-54
2022/05/08 01:50:18;;;;;;;15.80;14.30;;;12.80;99.90;;;-141.84;93.19;16995.97;5090459;28;20301;-56
2022/05/08 01:52:47;;;;;;;16.53;15.03;;;12.80;99.90;;;-141.84;93.85;17034.56;5111556;28;20278;-54
2022/05/08 01:55:16;;;;;;;15.30;13.80;;;12.80;99.90;;;-141.84;93.35;17004.09;5110815;28;20794;-54
2022/05/08 01:57:45;;;;;;;15.20;13.63;;;12.80;99.90;;;-141.84;93.16;16971.59;5111009;28;20219;-52
2022/05/08 02:00:14;;;;;;;16.23;14.70;;;12.80;99.90;;;-141.84;93.35;16995.97;5110987;28;20307;-57
2022/05/08 02:02:44;;;;;;;16.10;14.50;;;12.80;99.90;;;-141.84;93.19;16965.50;5110849;28;20259;-55
2022/05/08 02:05:12;;;;;;;15.80;14.20;;;12.70;99.90;;;-141.84;93.36;16973.63;5111038;28;20271;-54
2022/05/08 02:07:40;;;;;;;15.53;14.00;;;12.80;99.90;;;-141.84;93.56;17012.22;5111151;28;20750;-53
2022/05/08 02:10:09;;;;;;;15.40;13.90;;;12.70;99.90;;;-141.84;93.66;16985.81;5110557;28;20790;-55
2022/05/08 02:12:39;;;;;;;16.03;14.43;;;12.70;99.90;;;-141.84;94.18;16955.38;5111028;28;20310;-57
2022/05/08 02:15:10;;;;;;;15.10;13.60;;;12.60;99.90;;;-141.84;93.68;16965.50;5110691;28;20318;-56
2022/05/08 02:17:39;;;;;;;17.47;14.63;;;12.60;99.90;;;-141.84;95.10;16973.63;5110908;28;20254;-54
2022/05/08 02:20:09;;;;;;;14.80;13.40;;;12.50;99.90;;;-141.84;95.46;16896.47;5110532;28;20191;-54
2022/05/08 02:22:38;;;;;;;16.13;14.43;;;12.50;99.90;;;-141.84;93.63;16963.47;5111143;28;20195;-56
2022/05/08 02:25:08;;;;;;;15.17;13.67;;;12.60;99.90;;;-141.84;94.03;16924.91;5110362;28;20233;-57
2022/05/08 02:27:39;;;;;;;15.60;14.00;;;12.50;99.90;;;-141.84;94.42;16918.81;5110648;28;20257;-53
2022/05/08 02:30:10;;;;;;;16.20;14.60;;;12.50;99.90;;;-141.84;94.86;16914.75;5110601;28;20330;-55
2022/05/08 02:32:39;;;;;;;16.27;13.70;;;12.50;99.90;;;-141.84;95.21;16892.41;5111209;28;20302;-54
2022/05/08 02:35:10;;;;;;;14.93;13.53;;;12.40;99.90;;;-141.84;94.81;16935.06;5110738;28;20302;-54
2022/05/08 02:37:39;;;;;;;15.07;13.57;;;12.50;99.90;;;-141.84;95.35;16908.66;5110778;28;20298;-55
2022/05/08 02:40:09;;;;;;;15.90;14.40;;;12.50;99.90;;;-141.84;94.92;16902.56;5110224;28;20238;-54
2022/05/08 02:42:40;;;;;;;15.70;14.10;;;12.50;99.90;;;-141.84;95.21;16892.41;5110635;28;20239;-53
2022/05/08 02:45:09;;;;;;;15.83;14.23;;;12.50;99.90;;;-141.84;95.50;16924.91;5113726;28;20252;-55
2022/05/08 02:47:38;;;;;;;15.70;14.20;;;12.50;99.90;;;-141.84;95.74;16870.06;5114879;28;20223;-54
2022/05/08 02:50:09;;;;;;;15.20;13.70;;;12.40;99.90;;;-141.84;94.81;16878.19;5114411;28;20195;-57
2022/05/08 02:52:38;;;;;;;15.40;13.90;;;12.50;99.90;;;-141.84;95.11;16908.66;5114921;28;20629;-56
2022/05/08 03:00:45;;;;;;;15.23;13.60;;;12.50;99.90;;;-141.84;96.11;16866.00;5114512;28;20671;-55
2022/05/08 03:03:14;;;;;;;15.77;14.27;;;12.50;99.90;;;-141.84;95.67;16874.13;5114453;28;20299;-52
2022/05/08 03:05:44;;;;;;;15.80;14.23;;;12.50;99.90;;;-141.84;96.63;16863.97;5114417;28;20223;-55
2022/05/08 03:08:14;;;;;;;16.50;14.30;;;12.50;99.90;;;-141.84;95.67;16868.03;5114393;28;20317;-56
2022/05/08 03:13:35;;;;;;;15.67;14.10;;;12.50;99.90;;;-141.84;96.45;16845.69;5114717;28;20207;-53
2022/05/08 03:16:03;;;;;;;15.93;14.33;;;12.50;99.90;;;-141.84;96.08;16843.66;5113934;28;20594;-51
2022/05/08 03:18:31;;;;;;;15.00;13.60;;;12.50;99.90;;;-141.84;96.71;16817.25;5114093;28;20305;-51
2022/05/08 03:20:59;;;;;;;15.93;14.40;;;12.50;99.90;;;-141.84;97.78;16841.63;5114164;28;20315;-50
2022/05/08 03:23:28;;;;;;;16.57;14.87;;;12.40;99.90;;;-141.84;97.98;16801.03;5113776;28;20223;-54
2022/05/08 03:25:55;;;;;;;15.60;14.03;;;12.30;99.90;;;-141.84;97.94;16792.91;5113868;28;20260;-51
2022/05/08 03:28:23;;;;;;;16.57;14.87;;;12.30;99.90;;;-141.84;98.78;16758.38;5114624;28;20238;-53
2022/05/08 03:30:53;;;;;;;16.33;14.63;;;12.20;99.90;;;-141.84;99.18;16721.81;5113819;28;20307;-55
2022/05/08 03:33:21;;;;;;;14.57;13.17;;;12.20;99.90;;;-141.84;99.77;16750.25;5113951;28;20222;-54
2022/05/08 03:35:49;;;;;;;15.87;13.97;;;12.10;99.90;;;-141.84;99.05;16754.31;5093488;28;20306;-55
2022/05/08 03:38:18;;;;;;;16.70;15.00;;;12.20;99.90;;;-141.84;99.59;16744.16;5093085;28;20220;-53
2022/05/08 03:40:46;;;;;;;16.17;14.40;;;12.10;99.90;;;-141.84;100.00;16725.88;5093390;28;20651;-53
2022/05/08 03:43:14;;;;;;;16.33;14.73;;;12.10;99.90;;;-141.84;99.61;16750.25;5093256;28;20278;-54
2022/05/08 03:45:43;;;;;;;15.57;14.07;;;12.10;99.90;;;-141.84;98.38;16731.97;5101785;28;20229;-54
2022/05/08 03:48:12;;;;;;;15.77;13.97;;;12.20;99.90;;;-141.84;99.23;16754.31;5113546;28;20223;-56
2022/05/08 03:50:40;;;;;;;16.37;14.67;;;12.10;99.90;;;-141.84;100.00;16703.53;5113791;28;20315;-53
2022/05/08 03:53:09;;;;;;;16.23;14.60;;;12.10;99.90;;;-141.84;99.12;16748.22;5113102;28;20290;-55
2022/05/08 03:55:37;;;;;;;15.77;14.13;;;12.10;99.90;;;-141.84;98.32;16754.31;5113298;28;20203;-56
2022/05/08 03:58:05;;;;;;;14.93;13.43;;;12.20;99.90;;;-141.84;99.08;16715.72;5113238;28;20222;-55
2022/05/08 04:00:33;;;;;;;15.53;14.03;;;12.20;99.90;;;-141.84;98.32;16738.06;5113187;28;20648;-55
2022/05/08 04:03:01;;;;;;;15.77;14.17;;;12.20;99.90;;;-141.84;98.85;16748.22;5113283;28;20690;-54
2022/05/08 04:05:31;;;;;;;16.07;14.50;;;12.20;99.90;;;-141.84;98.78;16721.81;5113493;28;20259;-56
2022/05/08 04:07:59;;;;;;;14.90;13.37;;;12.20;99.90;;;-141.84;98.53;16750.25;5112977;28;20196;-56
2022/05/08 04:10:27;;;;;;;15.47;13.57;;;12.30;99.90;;;-141.84;98.38;16746.19;5113460;28;20237;-55
2022/05/08 04:12:55;;;;;;;17.10;14.40;;;12.30;99.90;;;-141.84;98.55;16721.81;5112943;28;20315;-54
2022/05/08 04:18:09;;;;;;;14.40;12.90;;;12.40;99.90;;;-141.84;97.32;16770.56;5112982;28;20251;-55
2022/05/08 04:20:38;;;;;;;14.13;12.63;;;12.40;99.90;;;-141.84;97.31;16786.81;5112811;28;20254;-55
2022/05/08 04:25:53;;;;;;;13.77;12.37;;;12.60;99.90;;;-141.84;97.06;16778.69;5112851;28;20584;-54
2022/05/08 04:28:21;;;;;;;13.47;12.07;;;12.60;99.90;;;-141.84;96.67;16782.75;5113522;28;20203;-55
2022/05/08 04:30:51;;;;;;;13.90;12.50;;;12.70;99.90;;;-141.84;96.92;16819.28;5112518;28;20306;-53
2022/05/08 04:33:22;;;;;;;13.93;12.57;;;12.70;99.90;;;-141.84;96.51;16796.97;5112851;28;20234;-56
2022/05/08 04:35:51;;;;;;;15.00;12.37;;;12.70;99.90;;;-141.84;97.26;16778.69;5112789;28;20770;-55
2022/05/08 04:38:19;;;;;;;14.30;12.90;;;12.70;99.90;;;-141.84;97.34;16774.63;5112689;28;20310;-54
2022/05/08 04:40:47;;;;;;;18.90;13.83;;;12.70;99.90;;;-141.84;97.60;16764.47;5112880;28;20247;-54
2022/05/08 04:43:15;;;;;;;14.80;13.30;;;12.70;99.90;;;-141.84;97.94;16774.63;5112126;28;20600;-54
2022/05/08 04:45:43;;;;;;;14.10;12.60;;;12.70;99.90;;;-141.84;97.66;16770.56;5112599;28;20306;-54
2022/05/08 04:48:11;;;;;;;13.90;12.60;;;12.80;99.90;;;-141.84;97.44;16760.41;5112592;28;20398;-54
2022/05/08 04:50:40;;;;;;;16.63;13.03;;;12.80;99.90;;;-141.84;97.34;16764.47;5112603;28;20231;-55
2022/05/08 04:53:09;;;;;;;14.37;12.57;;;12.80;99.90;;;-141.84;98.17;16780.72;5112090;28;20231;-55
2022/05/08 04:55:37;;;;;;;15.80;12.63;;;12.80;99.90;;;-141.84;97.91;16786.81;5112873;28;20238;-52
2022/05/08 04:58:05;;;;;;;14.20;12.70;;;12.80;99.90;;;-141.84;97.07;16788.84;5112161;28;20231;-55
2022/05/08 05:00:34;;;;;;;13.40;12.10;;;12.90;99.90;;;-141.84;97.27;16756.34;5112331;28;20269;-53
2022/05/08 05:03:02;;;;;;;14.07;12.73;;;12.90;99.90;;;-141.84;97.60;16768.53;5112386;28;20223;-52
2022/05/08 05:05:31;;;;;;;13.67;12.40;;;12.90;99.90;;;-141.84;96.21;16794.94;5112581;28;20227;-54
2022/05/08 05:07:59;;;;;;;14.03;12.63;;;13.00;99.90;;;-141.84;96.55;16770.56;5111063;28;20200;-58
2022/05/08 05:10:28;;;;;;;14.70;12.43;;;13.00;99.90;;;-141.84;96.69;16809.13;5112881;28;20227;-53
2022/05/08 05:12:56;;;;;;;14.20;12.80;;;13.10;99.90;;;-141.84;96.52;16786.81;5112043;28;20758;-52
2022/05/08 05:15:24;;;;;;;12.93;11.67;;;13.10;99.90;;;-141.84;96.33;16772.59;5112040;28;20226;-51
2022/05/08 05:17:52;;;;;;;14.03;12.40;;;13.00;99.90;;;-141.84;96.63;16762.44;5111899;28;20233;-53
2022/05/08 05:20:21;;;;;;;13.70;11.90;;;13.00;99.90;;;-141.84;96.07;16778.69;5111855;28;20307;-53
2022/05/08 05:22:49;;;;;;;12.33;11.13;;;13.10;99.90;;;-141.84;96.23;16819.28;5112001;28;20282;-52
2022/05/08 05:25:16;;;;;;;13.57;12.27;;;13.10;99.90;;;-141.84;96.21;16780.72;5112372;28;20304;-54
2022/05/08 05:27:46;;;;;;;13.63;12.27;;;13.10;99.90;;;-141.84;95.33;16817.25;5111238;28;20215;-56
2022/05/08 05:30:16;;;;;;;12.70;11.40;;;13.20;99.90;;;-141.84;96.35;16778.69;5112077;28;20661;-55
2022/05/08 05:32:44;;;;;;;12.07;10.80;;;13.20;99.90;;;-141.84;95.40;16780.72;5111762;28;20227;-56
2022/05/08 05:35:12;;;;;;;12.87;11.57;;;13.10;99.90;;;-141.84;94.73;16839.59;5112080;28;20655;-55
2022/05/08 05:37:41;;;;;;;12.40;11.07;;;13.20;99.90;;;-141.84;94.44;16833.50;5111852;28;20290;-56
2022/05/08 05:40:10;;;;;;;12.27;10.47;;;13.20;99.90;;;-141.84;93.85;16878.19;5111275;28;20698;-56
2022/05/08 05:42:39;;;;;;;11.63;10.43;;;13.30;99.90;;;-141.84;94.42;16866.00;5111670;28;20231;-57
2022/05/08 05:45:09;;;;;;;12.83;10.87;;;13.20;99.90;;;-141.84;94.20;16794.94;5111679;28;20313;-55
2022/05/08 05:47:52;;;;;;;13.07;11.77;;;13.20;99.90;;;-141.84;94.35;16831.47;5111606;28;20219;-53
2022/05/08 05:50:23;;;;;;;12.73;11.37;;;13.20;99.90;;;-141.84;94.21;16847.72;5111664;28;20222;-53
2022/05/08 05:52:52;;;;;;;12.03;10.93;;;13.20;99.90;;;-141.84;94.22;16827.41;5111495;28;20200;-57
2022/05/08 05:55:21;;;;;;;11.40;10.30;;;13.10;99.90;;;-141.84;94.13;16833.50;5112241;28;20294;-57
2022/05/08 05:57:49;;;;;;;12.60;10.60;;;13.20;99.90;;;-141.84;93.81;16839.59;5111107;28;20798;-53
2022/05/08 06:00:21;;;;;;;11.70;10.50;;;13.20;99.90;;;-141.84;93.67;16868.03;5110874;28;20724;-56
2022/05/08 06:02:49;;;;;;;11.50;10.40;;;13.30;99.90;;;-141.84;92.97;16868.03;5111239;28;20234;-58
2022/05/08 06:05:17;;;;;;;11.40;10.40;;;13.30;99.90;;;-141.84;92.70;16888.34;5111302;28;20307;-55
2022/05/08 06:07:45;;;;;;;11.93;10.60;;;13.30;99.90;;;-141.84;91.44;16928.97;5111656;28;20230;-54
2022/05/08 06:10:14;;;;;;;11.43;10.23;;;13.40;99.90;;;-141.84;91.07;16908.66;5110760;28;20306;-55
2022/05/08 06:12:42;;;;;;;12.73;9.63;;;13.50;99.90;;;-141.84;91.30;16935.06;5111304;28;20219;-53
2022/05/08 06:15:11;;;;;;;11.17;9.80;;;13.50;99.90;;;-141.84;90.64;16933.03;5110944;28;20227;-54
2022/05/08 06:17:40;;;;;;;12.17;10.10;;;13.60;99.90;;;-141.84;89.98;16937.09;5111226;28;20298;-53
2022/05/08 06:20:10;;;;;;;10.40;9.10;;;13.60;99.90;;;-141.84;90.41;16965.50;5110286;28;20695;-54
2022/05/08 06:22:38;;;;;;;10.60;8.87;;;13.70;99.90;;;-141.84;89.34;16959.41;5110453;28;20384;-54
2022/05/08 06:25:07;;;;;;;10.20;8.73;;;13.80;99.90;;;-141.84;89.32;16969.56;5110408;28;20733;-54
2022/05/08 06:27:35;;;;;;;10.17;9.17;;;13.90;99.90;;;-141.84;87.42;17012.22;5110975;28;20223;-55
2022/05/08 06:30:04;;;;;;;11.93;8.30;;;14.00;99.90;;;-141.84;86.00;17050.81;5110782;28;20227;-54
2022/05/08 06:32:35;;;;;;;9.83;8.67;;;14.10;99.90;;;-141.84;86.00;17105.66;5111208;28;20223;-55
2022/05/08 06:35:24;;;;;;;9.97;8.97;;;14.20;99.90;;;-141.84;85.16;17079.25;5110771;28;20225;-53
2022/05/08 06:37:54;;;;;;;9.93;8.47;;;14.30;99.90;;;-141.84;82.96;17168.59;5110754;28;20225;-54
2022/05/08 06:40:22;;;;;;;9.32;8.45;;;14.50;99.90;;;-141.84;82.87;17231.56;5111501;28;20238;-56
2022/05/08 06:42:50;;;;;;;9.07;7.80;;;14.50;99.90;;;-141.84;82.46;17243.75;5110865;28;20229;-52
2022/05/08 06:45:23;;;;;;;8.40;7.60;;;14.70;99.90;;;-141.84;80.64;17290.47;5110561;28;20219;-58
2022/05/08 06:47:52;;;;;;;9.57;7.97;;;14.80;99.90;;;-141.84;80.51;17310.78;5111051;28;20226;-53
2022/05/08 06:50:20;;;;;;;9.15;8.00;;;14.80;99.90;;;-141.84;79.35;17375.78;5110525;28;20306;-56
2022/05/08 06:52:49;;;;;;;9.97;8.20;;;14.90;99.90;;;-141.84;78.38;17392.03;5111357;28;20222;-52
2022/05/08 06:55:19;;;;;;;8.20;7.50;;;15.10;99.90;;;-141.84;78.52;17412.34;5110827;28;20221;-51
2022/05/08 06:57:47;;;;;;;9.98;8.20;;;15.00;99.90;;;-141.84;78.67;17371.72;5110709;28;20717;-53
2022/05/08 07:03:04;;;;;;;8.63;7.60;;;15.00;99.90;;;-141.84;80.18;17339.22;5110732;28;20239;-55
2022/05/08 07:05:33;;;;;;;9.13;7.30;;;15.10;99.90;;;-141.84;78.54;17381.88;5110099;28;20831;-57
2022/05/08 07:08:02;;;;;;;8.60;7.55;;;15.10;99.90;;;-141.84;77.19;17448.91;5106915;28;20686;-54
2022/05/08 07:10:30;;;;;;;9.20;8.27;;;15.30;99.90;;;-141.84;75.38;17528.09;5111167;28;20191;-56
2022/05/08 07:12:58;;;;;;;8.43;7.45;;;15.50;99.90;;;-141.84;74.55;17546.38;5110261;28;20604;-55
2022/05/08 07:15:26;;;;;;;9.75;7.85;;;15.60;99.90;;;-141.84;72.96;17643.88;5110364;28;20885;-53
2022/05/08 07:18:14;;;;;;;8.82;7.60;;;15.80;99.90;;;-141.84;73.11;17647.94;5110324;28;20704;-54
2022/05/08 07:20:42;;;;;;;9.82;7.93;;;16.00;99.90;;;-141.84;72.85;17627.63;5109912;28;20265;-55
2022/05/08 07:23:12;;;;;;;8.02;7.13;;;16.10;99.90;;;-141.84;71.57;17696.69;5106458;28;20746;-54
2022/05/08 07:25:41;;;;;;;9.40;8.45;;;16.10;99.90;;;-141.84;72.22;17631.69;5111176;28;20203;-56
2022/05/08 07:28:09;;;;;;;9.73;7.85;;;16.10;99.90;;;-141.84;72.04;17676.38;5110302;28;20227;-55
2022/05/08 07:30:37;;;;;;;8.65;7.78;;;16.10;99.90;;;-141.84;71.50;17706.84;5110505;28;20298;-51
2022/05/08 07:33:05;;;;;;;8.82;7.95;;;16.20;99.90;;;-141.84;72.08;17670.28;5113955;28;20289;-53
2022/05/08 07:38:28;;;;;;;8.30;7.50;;;16.30;99.90;;;-141.84;70.36;17721.06;5113942;28;20265;-53
2022/05/08 07:41:01;;;;;;;9.00;7.75;;;16.40;99.90;;;-141.84;70.93;17714.97;5113910;28;20203;-54
2022/05/08 07:43:29;;;;;;;8.65;7.38;;;16.40;99.90;;;-141.84;69.61;17737.31;5114630;28;20199;-54
2022/05/08 07:45:57;;;;;;;7.78;7.07;;;16.30;99.90;;;-141.84;69.77;17719.03;5113574;28;20254;-56
2022/05/08 07:48:25;;;;;;;8.60;7.82;;;16.40;99.90;;;-141.84;70.31;17725.13;5113832;28;20318;-55
2022/05/08 07:50:53;;;;;;;8.50;7.70;;;16.30;99.90;;;-141.84;71.21;17719.03;5113618;28;20220;-54
2022/05/08 07:53:21;;;;;;;8.23;7.53;;;16.40;99.90;;;-141.84;70.08;17755.59;5113596;28;20227;-56
2022/05/08 07:55:52;;;;;;;8.57;7.68;;;16.50;99.90;;;-141.84;69.15;17765.75;5114018;28;20706;-55
2022/05/08 07:58:22;;;;;;;9.10;8.00;;;16.70;99.90;;;-141.84;67.23;17855.13;5114138;28;20253;-54
2022/05/08 08:00:53;;;;;;;8.43;7.63;;;16.90;99.90;;;-141.84;66.67;17873.41;5113260;28;20322;-54
2022/05/08 08:03:23;;;;;;;9.40;7.32;;;17.00;99.90;;;-141.84;64.46;17934.38;5113628;28;20306;-52
2022/05/08 08:05:51;;;;;;;8.10;7.28;;;17.40;99.90;;;-141.84;62.70;18042.03;5113254;28;20555;-55
2022/05/08 08:08:39;;;;;;;7.55;6.85;;;17.70;99.90;;;-141.84;61.32;18082.66;5113159;28;20324;-54
2022/05/08 08:11:11;;;;;;;8.90;8.07;;;18.00;99.90;;;-141.84;59.82;18141.56;5112984;28;20690;-56
2022/05/08 08:13:39;;;;;;;8.63;7.78;;;18.30;99.90;;;-141.84;60.98;18086.72;5113678;28;20646;-54
2022/05/08 08:16:09;;;;;;;7.47;6.45;;;18.20;99.90;;;-141.84;62.10;18062.34;5112179;28;20227;-56
2022/05/08 08:18:37;;;;;;;7.85;6.95;;;18.00;99.90;;;-141.84;60.81;18115.16;5113053;28;20298;-52
2022/05/08 08:21:09;;;;;;;9.63;8.13;;;18.30;99.90;;;-141.84;61.46;18086.72;5112920;28;20235;-55
2022/05/08 08:23:38;;;;;;;7.95;7.15;;;18.20;99.90;;;-141.84;61.83;18082.66;5109098;28;20597;-59
2022/05/08 08:26:08;;;;;;;7.78;6.97;;;18.00;99.90;;;-141.84;62.20;18111.09;5112696;28;20231;-55
2022/05/08 08:28:36;;;;;;;7.97;7.28;;;17.90;99.90;;;-141.84;62.10;18078.59;5113799;28;20203;-54
2022/05/08 08:31:06;;;;;;;9.02;7.93;;;17.90;99.90;;;-141.84;62.95;18046.09;5112730;28;20302;-54
2022/05/08 08:33:37;;;;;;;10.70;7.82;;;17.70;99.90;;;-141.84;62.69;18046.09;5112743;28;20227;-55
2022/05/08 08:36:06;;;;;;;8.77;7.47;;;17.70;99.90;;;-141.84;63.54;18025.78;5112302;28;20769;-55
2022/05/08 08:38:35;;;;;;;8.73;7.93;;;17.60;99.90;;;-141.84;63.03;18040.00;5112394;28;20757;-55
2022/05/08 08:41:04;;;;;;;8.70;7.90;;;17.70;99.90;;;-141.84;62.46;18086.72;5109391;28;20211;-57
2022/05/08 08:49:14;;;;;;;9.52;7.85;;;17.80;99.90;;;-141.84;62.71;18044.06;5112934;28;20227;-56
2022/05/08 08:51:44;;;;;;;7.53;6.82;;;17.80;99.90;;;-141.84;61.76;18090.78;5113087;28;20780;-56
2022/05/08 08:54:12;;;;;;;8.85;6.95;;;18.00;99.90;;;-141.84;61.45;18050.16;5112797;28;20254;-53
2022/05/08 08:56:40;;;;;;;8.93;6.70;;;17.90;99.90;;;-141.84;61.13;18141.56;5112497;28;20242;-55
2022/05/08 08:59:10;;;;;;;9.73;7.63;;;18.00;99.90;;;-141.84;61.67;18050.16;5113055;28;20286;-56
2022/05/08 09:01:41;;;;;;;7.50;6.75;;;17.80;99.90;;;-141.84;60.82;18139.53;5113278;28;20331;-56
2022/05/08 09:04:11;;;;;;;8.65;7.43;;;18.10;99.90;;;-141.84;60.87;18135.47;5112831;28;20223;-52
2022/05/08 09:06:40;;;;;;;8.00;6.57;;;18.10;99.90;;;-141.84;60.65;18109.06;5112528;28;20307;-54
2022/05/08 09:09:26;;;;;;;8.00;6.70;;;18.20;99.90;;;-141.84;60.30;18159.84;5112609;28;20250;-58
2022/05/08 09:11:57;;;;;;;8.25;6.75;;;18.30;99.90;;;-141.84;59.43;18208.59;5111248;28;20227;-55
2022/05/08 09:14:31;;;;;;;8.35;6.20;;;18.60;99.90;;;-141.84;58.18;18239.09;5112464;28;20246;-54
2022/05/08 09:17:01;;;;;;;7.43;6.30;;;18.80;99.90;;;-141.84;56.80;18285.81;5111374;28;20677;-56
2022/05/08 09:19:34;;;;;;;9.48;6.55;;;18.80;99.90;;;-141.84;57.08;18257.38;5113031;28;20214;-55
2022/05/08 09:22:03;;;;;;;9.90;6.65;;;19.00;99.90;;;-141.84;56.47;18322.38;5112261;28;20694;-54
2022/05/08 09:24:32;;;;;;;8.25;6.32;;;19.00;99.90;;;-141.84;58.07;18273.63;5111823;28;20225;-54
2022/05/08 09:27:14;;;;;;;7.60;6.45;;;18.70;99.90;;;-141.84;58.21;18218.75;5111529;28;20219;-55
2022/05/08 09:29:45;;;;;;;7.80;7.10;;;18.50;99.90;;;-141.84;58.05;18208.59;5111939;28;20254;-57
2022/05/08 09:32:38;;;;;;;10.27;7.40;;;18.50;99.90;;;-141.84;58.40;18220.78;5112196;28;20605;-54
2022/05/08 09:35:08;;;;;;;9.02;7.13;;;18.50;99.90;;;-141.84;58.37;18198.44;5112545;28;20241;-55
2022/05/08 09:37:52;;;;;;;10.13;7.32;;;18.40;99.90;;;-141.84;59.05;18188.28;5112593;28;20294;-54
2022/05/08 09:40:23;;;;;;;8.30;7.00;;;18.20;99.90;;;-141.84;58.48;18186.25;5112006;28;20574;-56
2022/05/08 09:42:51;;;;;;;6.63;5.70;;;18.30;99.90;;;-141.84;56.77;18285.81;5111848;28;20698;-57
2022/05/08 09:45:20;;;;;;;12.07;6.70;;;18.60;99.90;;;-141.84;55.21;18367.06;5111850;28;20695;-59
2022/05/08 09:47:51;;;;;;;9.43;6.47;;;19.00;99.90;;;-141.84;54.00;18367.06;5111746;28;20314;-56
2022/05/08 09:50:19;;;;;;;7.72;6.20;;;19.30;99.90;;;-141.84;54.92;18350.81;5112005;28;20332;-57
2022/05/08 09:52:47;;;;;;;7.70;6.60;;;19.30;99.90;;;-141.84;57.20;18287.84;5112193;28;20290;-57
2022/05/08 09:55:16;;;;;;;7.20;6.50;;;18.90;99.90;;;-141.84;57.45;18245.19;5110875;28;20223;-55
2022/05/08 09:57:44;;;;;;;7.47;6.45;;;18.70;99.90;;;-141.84;58.21;18200.47;5111726;28;20302;-56
2022/05/08 10:00:16;;;;;;;9.13;6.88;;;18.50;99.90;;;-141.84;58.49;18192.34;5111691;28;20226;-55
2022/05/08 10:02:46;;;;;;;7.88;6.68;;;18.60;99.90;;;-141.84;59.29;18182.19;5111596;28;20238;-55
2022/05/08 10:05:16;;;;;;;8.40;6.70;;;18.60;99.90;;;-141.84;58.73;18159.84;5112020;28;20253;-52
2022/05/08 10:07:45;;;;;;;9.05;6.25;;;18.40;99.90;;;-141.84;59.79;18163.91;5111512;28;20208;-52
2022/05/08 10:15:51;;;;;;;10.15;7.00;;;18.80;99.90;;;-141.84;54.97;18379.25;5111576;28;20520;-54
2022/05/08 10:18:28;;;;;;;8.57;7.47;;;19.30;99.90;;;-141.84;53.04;18421.91;5111349;28;20716;-56
2022/05/08 10:21:06;;;;;;;12.13;10.38;;;19.70;99.90;;;-141.84;51.15;18515.38;5091235;28;20652;-54
2022/05/08 10:23:37;;;;;;;8.95;5.95;;;19.90;99.90;;;-141.84;51.64;18499.13;5099854;28;20219;-55
2022/05/08 10:26:17;;;;;;;6.50;5.82;;;19.70;99.90;;;-141.84;52.09;18501.16;5106154;28;20258;-56
2022/05/08 10:29:12;;;;;;;7.22;5.43;;;19.90;99.90;;;-141.84;51.73;18499.13;5111187;28;20199;-56
2022/05/08 10:31:45;;;;;;;7.28;6.57;;;19.90;99.90;;;-141.84;53.20;18438.19;5111195;28;20255;-56
2022/05/08 10:34:16;;;;;;;8.70;5.20;;;19.70;99.90;;;-141.84;54.07;18379.25;5111372;28;20254;-56
2022/05/08 10:37:26;;;;;;;7.53;5.82;;;19.50;99.90;;;-141.84;55.09;18328.47;5095293;28;20215;-55
2022/05/08 10:39:54;;;;;;;7.20;5.72;;;19.20;99.90;;;-141.84;54.85;18336.59;5090319;28;20226;-54
2022/05/08 10:42:44;;;;;;;7.97;5.82;;;19.20;99.90;;;-141.84;54.63;18381.28;5107293;28;20333;-55